Time;durP1;ratioP1;P1;durP2;ratioP2;P2;SDS_P1;SDS_P2;PMS_P1;PMS_P2;Temp;Humidity;BMP_temperature;BMP_pressure;BME280_temperature;BME280_humidity;BME280_pressure;Samples;Min_cycle;Max_cycle;Signal;HPM_P1;HPM_P2
2022/08/31 00:04:04;;;;;;;1.75;0.80;;;15.90;87.80;;;;;;5013618;28;20063;-60
2022/08/31 00:06:32;;;;;;;0.77;0.60;;;15.90;88.10;;;;;;5018634;28;20073;-61
2022/08/31 00:08:59;;;;;;;1.05;0.73;;;15.80;88.30;;;;;;5020215;28;20052;-61
2022/08/31 00:11:29;;;;;;;2.95;0.75;;;15.70;88.40;;;;;;5019962;28;20130;-60
2022/08/31 00:14:01;;;;;;;1.67;1.08;;;15.70;88.80;;;;;;5019085;28;20046;-59
2022/08/31 00:16:30;;;;;;;1.50;0.90;;;15.60;89.00;;;;;;5015812;28;20488;-60
2022/08/31 00:18:56;;;;;;;1.38;1.10;;;15.60;89.10;;;;;;5016041;28;20056;-61
2022/08/31 00:21:25;;;;;;;0.80;0.70;;;15.50;89.40;;;;;;5011363;28;20133;-60
2022/08/31 00:23:52;;;;;;;1.38;0.88;;;15.50;89.70;;;;;;5014185;28;20128;-61
2022/08/31 00:26:18;;;;;;;2.38;0.90;;;15.40;89.90;;;;;;5018198;28;20053;-61
2022/08/31 00:28:44;;;;;;;5.25;1.00;;;15.40;90.00;;;;;;5016860;28;20786;-60
2022/08/31 00:31:10;;;;;;;1.83;0.90;;;15.40;90.10;;;;;;5018323;28;20056;-61
2022/08/31 00:33:36;;;;;;;2.88;0.85;;;15.30;90.20;;;;;;5019735;28;20484;-61
2022/08/31 00:36:10;;;;;;;1.75;0.80;;;15.30;90.30;;;;;;5015530;28;20111;-61
2022/08/31 00:38:36;;;;;;;3.72;0.90;;;15.20;90.50;;;;;;5013879;28;20131;-61
2022/08/31 00:41:02;;;;;;;2.17;1.00;;;15.20;90.60;;;;;;5015765;28;20111;-61
2022/08/31 00:43:37;;;;;;;3.58;0.98;;;15.20;90.70;;;;;;5016166;28;20046;-60
2022/08/31 00:46:03;;;;;;;2.53;0.90;;;15.10;90.80;;;;;;5017070;28;20123;-60
2022/08/31 00:48:28;;;;;;;1.92;0.95;;;15.00;90.90;;;;;;5016046;28;20361;-61
2022/08/31 00:50:56;;;;;;;1.52;0.80;;;15.00;91.00;;;;;;5012175;28;20436;-60
2022/08/31 00:53:22;;;;;;;2.55;0.70;;;15.00;91.10;;;;;;5011594;28;20034;-60
2022/08/31 00:55:48;;;;;;;1.27;0.90;;;14.90;91.20;;;;;;5016604;28;20483;-60
2022/08/31 00:58:14;;;;;;;2.90;0.90;;;14.90;91.30;;;;;;5018050;28;20054;-60
2022/08/31 01:00:41;;;;;;;2.03;0.80;;;14.90;91.30;;;;;;5010543;28;20060;-61
2022/08/31 01:03:08;;;;;;;4.88;0.93;;;14.80;91.40;;;;;;5013488;28;20095;-61
2022/08/31 01:05:35;;;;;;;1.65;0.85;;;14.80;91.50;;;;;;5017473;28;20056;-61
2022/08/31 01:08:03;;;;;;;4.28;0.90;;;14.80;91.50;;;;;;5012920;28;20049;-60
2022/08/31 01:10:33;;;;;;;2.05;0.80;;;14.70;91.60;;;;;;5014879;28;20053;-60
2022/08/31 01:13:00;;;;;;;0.80;0.80;;;14.70;91.80;;;;;;5014523;28;20033;-60
2022/08/31 01:15:29;;;;;;;0.90;0.70;;;14.70;91.70;;;;;;5019416;28;20491;-61
2022/08/31 01:17:57;;;;;;;2.22;0.70;;;14.60;91.80;;;;;;5015964;28;20061;-60
2022/08/31 01:20:25;;;;;;;1.70;1.08;;;14.60;91.90;;;;;;5016539;28;20131;-61
2022/08/31 01:23:13;;;;;;;1.70;0.82;;;14.50;91.90;;;;;;5015489;28;21389;-61
2022/08/31 01:25:41;;;;;;;1.30;0.80;;;14.50;92.00;;;;;;5013522;28;20045;-61
2022/08/31 01:28:08;;;;;;;3.50;1.05;;;14.40;92.10;;;;;;5015678;28;20861;-61
2022/08/31 01:30:34;;;;;;;0.88;0.80;;;14.40;92.20;;;;;;5015004;28;20049;-60
2022/08/31 01:33:00;;;;;;;0.98;0.90;;;14.40;92.30;;;;;;5015497;28;20214;-60
2022/08/31 01:35:27;;;;;;;0.85;0.77;;;14.40;92.40;;;;;;5016438;28;20514;-61
2022/08/31 01:37:54;;;;;;;1.42;0.70;;;14.40;92.40;;;;;;5017369;28;20092;-60
2022/08/31 01:40:19;;;;;;;2.95;0.80;;;14.40;92.50;;;;;;5030176;28;20049;-60
2022/08/31 01:42:45;;;;;;;1.10;0.80;;;14.40;92.50;;;;;;5017360;28;20045;-60
2022/08/31 01:45:12;;;;;;;1.70;0.75;;;14.30;92.50;;;;;;5014366;28;20045;-60
2022/08/31 01:47:39;;;;;;;0.80;0.80;;;14.30;92.60;;;;;;5019954;28;20497;-61
2022/08/31 01:50:06;;;;;;;5.07;0.80;;;14.30;92.70;;;;;;5032923;28;20042;-61
2022/08/31 01:52:33;;;;;;;1.15;0.70;;;14.30;92.80;;;;;;5017033;28;20042;-60
2022/08/31 01:55:02;;;;;;;1.25;0.70;;;14.20;92.80;;;;;;5017206;28;20145;-60
2022/08/31 01:57:28;;;;;;;1.40;0.82;;;14.20;92.90;;;;;;5017494;28;20040;-60
2022/08/31 01:59:53;;;;;;;2.90;0.70;;;14.20;93.00;;;;;;5016632;28;20412;-60
2022/08/31 02:02:19;;;;;;;1.60;0.80;;;14.20;93.10;;;;;;5018522;28;20099;-61
2022/08/31 02:04:46;;;;;;;1.17;0.90;;;14.10;93.50;;;;;;5016265;28;20054;-60
2022/08/31 02:07:12;;;;;;;3.40;0.90;;;14.10;93.30;;;;;;5020055;28;20045;-60
2022/08/31 02:09:38;;;;;;;4.28;0.88;;;14.00;93.40;;;;;;5016307;28;20046;-60
2022/08/31 02:12:04;;;;;;;1.10;0.80;;;14.00;93.40;;;;;;5025040;28;20577;-60
2022/08/31 02:14:30;;;;;;;1.02;0.88;;;14.00;93.40;;;;;;5022756;28;20757;-60
2022/08/31 02:16:56;;;;;;;2.17;0.80;;;13.90;93.60;;;;;;5022766;28;20376;-61
2022/08/31 02:19:21;;;;;;;2.45;1.00;;;13.90;93.70;;;;;;5020985;28;20045;-60
2022/08/31 02:21:47;;;;;;;1.38;0.80;;;13.80;93.80;;;;;;5023281;28;20049;-60
2022/08/31 02:24:13;;;;;;;1.33;0.73;;;13.80;94.20;;;;;;5020272;28;20120;-61
2022/08/31 02:26:39;;;;;;;0.80;0.80;;;13.80;94.20;;;;;;5020705;28;20088;-61
2022/08/31 02:29:06;;;;;;;3.13;0.98;;;13.80;94.20;;;;;;5024193;28;20057;-60
2022/08/31 02:31:31;;;;;;;1.25;0.90;;;13.70;94.40;;;;;;5020513;28;20099;-60
2022/08/31 02:33:57;;;;;;;0.70;0.70;;;13.70;94.60;;;;;;5020321;28;20492;-61
2022/08/31 02:36:23;;;;;;;1.67;0.80;;;13.60;94.60;;;;;;5017840;28;20064;-60
2022/08/31 02:38:49;;;;;;;2.15;1.02;;;13.60;94.80;;;;;;5022860;28;20077;-61
2022/08/31 02:41:16;;;;;;;0.75;0.70;;;13.60;94.80;;;;;;5018572;28;20164;-61
2022/08/31 02:43:42;;;;;;;1.83;0.80;;;13.60;94.90;;;;;;5019335;28;20057;-61
2022/08/31 02:46:11;;;;;;;3.38;1.10;;;13.60;95.00;;;;;;5021796;28;20049;-61
2022/08/31 02:48:37;;;;;;;0.90;0.70;;;13.60;95.10;;;;;;5016658;28;20049;-61
2022/08/31 02:51:05;;;;;;;0.85;0.73;;;13.50;95.20;;;;;;5019908;28;20049;-60
2022/08/31 02:53:31;;;;;;;0.88;0.80;;;13.50;95.30;;;;;;5018049;28;20049;-60
2022/08/31 02:55:57;;;;;;;0.90;0.90;;;13.50;95.50;;;;;;5017552;28;20089;-60
2022/08/31 02:58:23;;;;;;;2.35;0.70;;;13.50;95.50;;;;;;5020353;28;20065;-60
2022/08/31 03:00:49;;;;;;;2.72;0.95;;;13.50;95.60;;;;;;5020122;28;20049;-60
2022/08/31 03:03:16;;;;;;;2.28;0.60;;;13.40;95.60;;;;;;5017851;28;20484;-60
2022/08/31 03:05:42;;;;;;;0.75;0.70;;;13.40;95.80;;;;;;5021101;28;20061;-60
2022/08/31 03:08:08;;;;;;;3.40;0.77;;;13.40;95.90;;;;;;5021371;28;20056;-61
2022/08/31 03:10:34;;;;;;;0.95;0.80;;;13.40;96.00;;;;;;5014390;28;20045;-60
2022/08/31 03:13:00;;;;;;;1.58;0.90;;;13.30;96.20;;;;;;5018282;28;20133;-60
2022/08/31 03:15:27;;;;;;;1.00;0.80;;;13.30;96.30;;;;;;5018024;28;20504;-60
2022/08/31 03:17:53;;;;;;;2.67;0.85;;;13.30;96.40;;;;;;5019817;28;20052;-61
2022/08/31 03:20:21;;;;;;;4.25;1.10;;;13.30;96.50;;;;;;5018980;28;20091;-60
2022/08/31 03:22:48;;;;;;;3.53;1.20;;;13.30;96.70;;;;;;5017121;28;20495;-60
2022/08/31 03:25:15;;;;;;;1.67;0.93;;;13.30;96.80;;;;;;5018151;28;20049;-61
2022/08/31 03:27:40;;;;;;;1.27;0.80;;;13.20;96.90;;;;;;5019793;28;20054;-61
2022/08/31 03:30:11;;;;;;;1.00;1.00;;;13.20;97.10;;;;;;5020444;28;20071;-61
2022/08/31 03:32:37;;;;;;;2.55;1.08;;;13.20;97.20;;;;;;5019771;28;20044;-60
2022/08/31 03:35:04;;;;;;;1.67;1.00;;;13.20;97.40;;;;;;5019409;28;20680;-60
2022/08/31 03:37:31;;;;;;;1.40;1.10;;;13.20;97.50;;;;;;5018252;28;20050;-60
2022/08/31 03:39:57;;;;;;;1.20;1.08;;;13.20;97.70;;;;;;5034474;28;20435;-60
2022/08/31 03:42:23;;;;;;;1.50;0.80;;;13.10;97.80;;;;;;5020310;28;20041;-60
2022/08/31 03:44:49;;;;;;;2.75;1.17;;;13.10;98.00;;;;;;5020681;28;20037;-60
2022/08/31 03:47:15;;;;;;;3.13;0.90;;;13.10;98.20;;;;;;5021410;28;20054;-60
2022/08/31 03:49:41;;;;;;;1.25;1.10;;;13.10;98.40;;;;;;5016875;28;20048;-60
2022/08/31 03:52:07;;;;;;;0.95;0.90;;;13.10;98.60;;;;;;5033647;28;20088;-61
2022/08/31 03:54:34;;;;;;;4.68;1.10;;;13.00;98.70;;;;;;5017818;28;21112;-61
2022/08/31 03:57:00;;;;;;;1.20;1.10;;;13.00;98.90;;;;;;5022567;28;20037;-60
2022/08/31 03:59:26;;;;;;;1.60;1.40;;;13.00;99.10;;;;;;5017562;28;20045;-60
2022/08/31 04:01:52;;;;;;;2.88;1.00;;;13.00;99.20;;;;;;5018575;28;20041;-61
2022/08/31 04:04:17;;;;;;;1.00;0.90;;;13.00;99.40;;;;;;5020086;28;20042;-61
2022/08/31 04:06:44;;;;;;;1.17;1.10;;;12.90;99.50;;;;;;5017065;28;20064;-60
2022/08/31 04:09:10;;;;;;;1.20;1.08;;;12.90;99.70;;;;;;5020603;28;20495;-61
2022/08/31 04:11:40;;;;;;;1.45;1.20;;;12.90;99.80;;;;;;5019206;28;20332;-61
2022/08/31 04:14:06;;;;;;;1.23;0.90;;;12.90;99.90;;;;;;5017455;28;20480;-61
2022/08/31 04:16:33;;;;;;;1.55;1.10;;;12.90;99.90;;;;;;5018840;28;20096;-60
2022/08/31 04:18:59;;;;;;;0.80;0.80;;;12.90;99.90;;;;;;5017987;28;20053;-60
2022/08/31 04:21:29;;;;;;;1.67;1.08;;;12.90;99.90;;;;;;5018223;28;20041;-60
2022/08/31 04:23:55;;;;;;;4.57;1.35;;;12.90;99.90;;;;;;5016145;28;20049;-61
2022/08/31 04:26:31;;;;;;;2.40;1.20;;;12.80;99.90;;;;;;5019862;28;20099;-59
2022/08/31 04:28:57;;;;;;;1.75;1.20;;;12.80;99.90;;;;;;5001499;28;20374;-61
2022/08/31 04:31:24;;;;;;;2.20;1.17;;;12.80;99.90;;;;;;5017887;28;20690;-61
2022/08/31 04:33:50;;;;;;;1.55;1.20;;;12.80;99.90;;;;;;5019419;28;20045;-61
2022/08/31 04:36:19;;;;;;;2.92;1.10;;;12.80;99.90;;;;;;5018404;28;20464;-61
2022/08/31 04:38:48;;;;;;;1.58;1.20;;;12.80;99.90;;;;;;5018793;28;20049;-60
2022/08/31 04:41:16;;;;;;;2.20;1.08;;;12.80;99.90;;;;;;5018104;28;20512;-61
2022/08/31 04:43:45;;;;;;;1.63;1.40;;;12.70;99.90;;;;;;5015558;28;20131;-61
2022/08/31 04:46:12;;;;;;;2.53;1.20;;;12.70;99.90;;;;;;5013594;28;20038;-60
2022/08/31 04:48:39;;;;;;;2.20;1.30;;;12.70;99.90;;;;;;5018217;28;20049;-61
2022/08/31 04:51:16;;;;;;;3.20;1.40;;;12.60;99.90;;;;;;5017149;28;20124;-60
2022/08/31 04:53:43;;;;;;;1.65;1.48;;;12.60;99.90;;;;;;5017785;28;20045;-60
2022/08/31 04:56:15;;;;;;;1.80;1.40;;;12.60;99.90;;;;;;5031927;28;20085;-60
2022/08/31 04:58:42;;;;;;;4.07;1.63;;;12.60;99.90;;;;;;5015916;28;20140;-60
2022/08/31 05:01:14;;;;;;;2.35;1.80;;;12.50;99.90;;;;;;5016764;28;20052;-60
2022/08/31 05:03:40;;;;;;;3.63;1.60;;;12.50;99.90;;;;;;5017215;28;20049;-61
2022/08/31 05:06:15;;;;;;;3.60;1.55;;;12.60;99.90;;;;;;5017102;28;20045;-60
2022/08/31 05:08:41;;;;;;;4.38;1.50;;;12.50;99.90;;;;;;5013957;28;20150;-60
2022/08/31 05:11:12;;;;;;;5.47;1.77;;;12.50;99.90;;;;;;5015443;28;20046;-60
2022/08/31 05:13:39;;;;;;;2.67;1.75;;;12.50;99.90;;;;;;5015206;28;20068;-61
2022/08/31 05:16:09;;;;;;;2.13;1.60;;;12.50;99.90;;;;;;5010633;28;20049;-60
2022/08/31 05:18:40;;;;;;;1.70;1.50;;;12.60;99.90;;;;;;5006982;28;20061;-60
2022/08/31 05:21:27;;;;;;;4.40;1.80;;;12.60;99.90;;;;;;5005153;28;20077;-60
2022/08/31 05:24:05;;;;;;;3.85;2.00;;;12.60;99.90;;;;;;5007281;28;20471;-60
2022/08/31 05:26:34;;;;;;;4.75;1.73;;;12.60;99.90;;;;;;5011289;28;20124;-60
2022/08/31 05:29:02;;;;;;;6.15;2.10;;;12.60;99.90;;;;;;5006003;28;20488;-60
2022/08/31 05:31:29;;;;;;;2.88;1.90;;;12.60;99.90;;;;;;5003134;28;20080;-60
2022/08/31 05:33:56;;;;;;;4.30;1.80;;;12.70;99.90;;;;;;5012972;28;20054;-59
2022/08/31 05:36:22;;;;;;;4.13;1.70;;;12.70;99.90;;;;;;5014199;28;20045;-61
2022/08/31 05:38:48;;;;;;;3.45;1.90;;;12.70;99.90;;;;;;5009736;28;20536;-61
2022/08/31 05:41:15;;;;;;;2.38;1.52;;;12.80;99.90;;;;;;5007456;28;20489;-61
2022/08/31 05:43:40;;;;;;;3.13;1.90;;;12.80;99.90;;;;;;5011937;28;20145;-61
2022/08/31 05:46:09;;;;;;;3.00;1.83;;;12.80;99.90;;;;;;5010876;28;20419;-60
2022/08/31 05:48:36;;;;;;;2.92;1.88;;;12.80;99.90;;;;;;5019948;28;20060;-61
2022/08/31 05:51:11;;;;;;;3.35;2.03;;;12.90;99.90;;;;;;5022001;28;20045;-61
2022/08/31 05:53:37;;;;;;;3.17;1.80;;;13.00;99.90;;;;;;5022734;28;20042;-60
2022/08/31 05:56:13;;;;;;;5.03;2.10;;;13.00;99.90;;;;;;5016472;28;20140;-60
2022/08/31 05:58:41;;;;;;;5.55;1.90;;;13.00;99.90;;;;;;5022171;28;20053;-60
2022/08/31 06:01:24;;;;;;;2.33;1.88;;;13.10;99.90;;;;;;5020060;28;20045;-60
2022/08/31 06:03:53;;;;;;;4.53;1.70;;;13.10;99.90;;;;;;5019952;28;20045;-61
2022/08/31 06:06:19;;;;;;;3.50;1.83;;;13.10;99.90;;;;;;5017728;28;20135;-60
2022/08/31 06:08:45;;;;;;;4.40;1.80;;;13.20;99.90;;;;;;5012503;28;20056;-60
2022/08/31 06:11:18;;;;;;;2.70;1.70;;;13.30;99.90;;;;;;5014076;28;20038;-65
2022/08/31 06:13:45;;;;;;;2.28;1.70;;;13.30;99.90;;;;;;5016374;28;20048;-64
2022/08/31 06:16:10;;;;;;;3.72;1.60;;;13.40;99.90;;;;;;5023782;28;20041;-64
2022/08/31 06:18:37;;;;;;;4.35;1.75;;;13.50;99.90;;;;;;5024243;28;20088;-64
2022/08/31 06:21:08;;;;;;;2.10;1.80;;;13.50;99.90;;;;;;5005812;28;20680;-64
2022/08/31 06:23:38;;;;;;;3.40;1.70;;;13.60;99.90;;;;;;5021700;28;20133;-64
2022/08/31 06:26:06;;;;;;;5.07;1.90;;;13.70;99.90;;;;;;5022165;28;20072;-65
2022/08/31 06:28:33;;;;;;;3.35;1.70;;;13.70;99.90;;;;;;5023910;28;20570;-64
2022/08/31 06:31:01;;;;;;;2.17;1.42;;;13.80;99.90;;;;;;5022408;28;20100;-64
2022/08/31 06:33:28;;;;;;;3.28;1.55;;;13.90;99.90;;;;;;5007552;28;20045;-65
2022/08/31 06:35:54;;;;;;;1.92;1.40;;;14.00;99.90;;;;;;5021926;28;20037;-64
2022/08/31 06:38:21;;;;;;;2.55;1.30;;;14.10;99.90;;;;;;5006233;28;20037;-65
2022/08/31 06:40:47;;;;;;;2.72;1.30;;;14.20;99.90;;;;;;5022164;28;20049;-64
2022/08/31 06:43:12;;;;;;;2.10;1.50;;;14.30;99.90;;;;;;5024093;28;20076;-64
2022/08/31 06:45:38;;;;;;;4.55;1.30;;;14.40;99.90;;;;;;5008050;28;20526;-64
2022/08/31 06:48:04;;;;;;;2.80;1.40;;;14.50;99.90;;;;;;5006349;28;20057;-64
2022/08/31 06:50:31;;;;;;;3.83;1.20;;;14.60;99.90;;;;;;5020186;28;20755;-64
2022/08/31 06:52:57;;;;;;;7.72;1.40;;;14.80;99.90;;;;;;5022552;28;20125;-64
2022/08/31 06:55:23;;;;;;;3.95;1.67;;;14.80;99.90;;;;;;5023471;28;20563;-64
2022/08/31 06:57:49;;;;;;;3.08;1.40;;;14.90;99.90;;;;;;5022307;28;20064;-64
2022/08/31 07:00:15;;;;;;;1.73;1.30;;;15.00;99.90;;;;;;5022567;28;20046;-65
2022/08/31 07:02:41;;;;;;;1.40;1.30;;;15.10;99.90;;;;;;5021533;28;20713;-64
2022/08/31 07:05:07;;;;;;;2.42;1.20;;;15.30;99.90;;;;;;5020957;28;20488;-64
2022/08/31 07:07:33;;;;;;;1.90;1.10;;;15.40;99.90;;;;;;5038662;28;20125;-65
2022/08/31 07:09:59;;;;;;;3.65;0.95;;;15.50;99.90;;;;;;5021416;28;20410;-65
2022/08/31 07:12:24;;;;;;;3.00;1.20;;;15.60;99.90;;;;;;5006518;28;20049;-65
2022/08/31 07:14:50;;;;;;;1.92;1.08;;;15.70;99.90;;;;;;5005099;28;20337;-65
2022/08/31 07:17:16;;;;;;;1.60;0.80;;;15.80;99.90;;;;;;5005245;28;20045;-65
2022/08/31 07:19:42;;;;;;;2.70;0.90;;;15.90;99.90;;;;;;5022751;28;20459;-66
2022/08/31 07:22:08;;;;;;;1.40;0.73;;;16.00;99.90;;;;;;5023069;28;20045;-65
2022/08/31 07:24:34;;;;;;;4.97;0.77;;;16.10;99.90;;;;;;5005826;28;20080;-64
2022/08/31 07:27:03;;;;;;;1.02;0.80;;;16.20;99.90;;;;;;5021904;28;20049;-65
2022/08/31 07:29:38;;;;;;;1.85;0.80;;;16.30;99.90;;;;;;5022216;28;20049;-64
2022/08/31 07:32:06;;;;;;;0.70;0.70;;;16.50;99.40;;;;;;5006541;28;20045;-65
2022/08/31 07:34:34;;;;;;;4.65;0.90;;;16.60;98.60;;;;;;5023229;28;20537;-65
2022/08/31 07:42:43;;;;;;;4.88;0.73;;;17.00;97.10;;;;;;5020712;28;20059;-65
2022/08/31 07:45:20;;;;;;;2.50;0.68;;;17.20;96.80;;;;;;5021902;28;20077;-65
2022/08/31 07:47:47;;;;;;;1.00;0.70;;;17.30;96.40;;;;;;5020967;28;20136;-65
2022/08/31 07:50:16;;;;;;;1.25;0.63;;;17.40;95.80;;;;;;5004371;28;20052;-65
2022/08/31 07:52:46;;;;;;;4.93;1.27;;;17.50;95.30;;;;;;5022958;28;20580;-65
2022/08/31 07:55:13;;;;;;;0.85;0.70;;;17.70;95.00;;;;;;5004981;28;20049;-65
2022/08/31 07:57:42;;;;;;;1.10;0.60;;;17.80;94.90;;;;;;5003995;28;20048;-65
2022/08/31 08:00:26;;;;;;;0.80;0.70;;;17.90;94.50;;;;;;5021976;28;20103;-65
2022/08/31 08:02:52;;;;;;;0.60;0.50;;;18.00;94.30;;;;;;5005678;28;20060;-65
2022/08/31 08:05:21;;;;;;;2.28;0.70;;;18.10;94.20;;;;;;5003032;28;20172;-65
2022/08/31 08:07:52;;;;;;;1.33;0.80;;;18.20;93.50;;;;;;4997927;28;20484;-65
2022/08/31 08:10:22;;;;;;;2.80;0.70;;;18.30;93.20;;;;;;5022019;28;20480;-65
2022/08/31 08:12:52;;;;;;;1.23;0.70;;;18.40;93.00;;;;;;5021103;28;20080;-65
2022/08/31 08:15:18;;;;;;;0.88;0.80;;;18.50;92.70;;;;;;5019626;28;20041;-65
2022/08/31 08:17:44;;;;;;;0.95;0.80;;;18.50;92.50;;;;;;5021753;28;22651;-65
2022/08/31 08:20:10;;;;;;;2.20;0.90;;;18.60;92.40;;;;;;5020603;28;20480;-65
2022/08/31 08:22:41;;;;;;;6.05;0.80;;;18.70;92.30;;;;;;5004041;28;20096;-65
2022/08/31 08:25:09;;;;;;;4.07;1.40;;;18.80;92.40;;;;;;5020417;28;20123;-65
2022/08/31 08:27:35;;;;;;;2.65;0.95;;;18.90;92.30;;;;;;5022969;28;20041;-65
2022/08/31 08:30:04;;;;;;;2.17;0.77;;;19.00;92.40;;;;;;5019499;28;20044;-65
2022/08/31 08:32:30;;;;;;;3.55;0.80;;;19.10;92.50;;;;;;4987936;28;20033;-65
2022/08/31 08:34:56;;;;;;;3.47;1.20;;;19.30;92.10;;;;;;5021755;28;20498;-64
2022/08/31 08:37:22;;;;;;;1.73;0.77;;;19.30;91.70;;;;;;5020944;28;20037;-65
2022/08/31 08:39:48;;;;;;;3.80;0.80;;;19.40;91.70;;;;;;5005023;28;20053;-65
2022/08/31 08:42:15;;;;;;;0.98;0.70;;;19.50;91.80;;;;;;5003752;28;20056;-65
2022/08/31 08:44:42;;;;;;;3.85;0.90;;;19.70;91.60;;;;;;5021431;28;20049;-64
2022/08/31 08:47:22;;;;;;;4.65;1.00;;;19.80;91.30;;;;;;5021019;28;20046;-65
2022/08/31 08:49:54;;;;;;;2.17;0.77;;;19.90;91.20;;;;;;5020266;28;20050;-64
2022/08/31 08:52:27;;;;;;;2.92;0.93;;;20.00;90.90;;;;;;5020837;28;20041;-65
2022/08/31 08:54:55;;;;;;;4.97;1.10;;;20.00;90.50;;;;;;5019292;28;20088;-65
2022/08/31 08:57:30;;;;;;;2.03;0.88;;;20.20;90.60;;;;;;5019158;28;20089;-65
2022/08/31 08:59:59;;;;;;;1.42;0.70;;;20.30;89.30;;;;;;5020261;28;20053;-64
2022/08/31 09:02:43;;;;;;;2.25;0.82;;;20.30;89.00;;;;;;5018685;28;20172;-65
2022/08/31 09:05:29;;;;;;;1.13;0.75;;;20.40;88.20;;;;;;5019762;28;20053;-65
2022/08/31 09:08:22;;;;;;;3.33;0.90;;;20.40;88.00;;;;;;5020636;28;20061;-65
2022/08/31 09:11:00;;;;;;;1.17;0.80;;;20.50;87.70;;;;;;5021224;28;20454;-65
2022/08/31 09:13:41;;;;;;;2.33;0.70;;;20.50;87.40;;;;;;5004074;28;20041;-65
2022/08/31 09:16:19;;;;;;;0.60;0.55;;;20.50;86.10;;;;;;5004792;28;20045;-65
2022/08/31 09:19:07;;;;;;;1.40;0.65;;;20.60;85.30;;;;;;5020370;28;20041;-65
2022/08/31 09:21:54;;;;;;;1.20;0.70;;;20.70;84.40;;;;;;5018790;28;20046;-64
2022/08/31 09:24:25;;;;;;;1.95;0.60;;;20.80;83.00;;;;;;5002442;28;20527;-65
2022/08/31 09:27:17;;;;;;;0.82;0.63;;;20.80;82.20;;;;;;5019980;28;20507;-64
2022/08/31 09:29:56;;;;;;;1.33;0.70;;;20.90;82.10;;;;;;5020143;28;20041;-65
2022/08/31 09:32:28;;;;;;;2.20;0.50;;;20.90;82.00;;;;;;5020040;28;20292;-64
2022/08/31 09:34:59;;;;;;;6.65;0.75;;;20.90;80.50;;;;;;5001832;28;20045;-64
2022/08/31 09:37:32;;;;;;;2.50;0.73;;;21.00;80.70;;;;;;5018649;28;20045;-64
2022/08/31 09:40:15;;;;;;;2.85;1.20;;;21.00;80.20;;;;;;5034959;28;20091;-64
2022/08/31 09:42:43;;;;;;;2.90;0.63;;;21.20;79.50;;;;;;5020522;28;20384;-64
2022/08/31 09:45:28;;;;;;;3.50;0.65;;;21.30;78.10;;;;;;5003657;28;20057;-65
2022/08/31 09:47:59;;;;;;;5.88;1.13;;;21.30;78.00;;;;;;5019021;28;20272;-64
2022/08/31 09:50:30;;;;;;;2.28;0.60;;;21.40;78.30;;;;;;5019394;28;20056;-65
2022/08/31 09:56:15;;;;;;;8.93;0.90;;;21.60;78.10;;;;;;5019954;28;20050;-65
2022/08/31 09:59:01;;;;;;;3.63;0.82;;;21.90;76.80;;;;;;5035399;28;20136;-65
2022/08/31 10:01:43;;;;;;;2.17;0.70;;;22.10;76.80;;;;;;5020143;28;20056;-64
2022/08/31 10:04:18;;;;;;;0.60;0.57;;;22.30;75.30;;;;;;5020515;28;20053;-65
2022/08/31 10:06:50;;;;;;;2.65;0.80;;;22.50;75.60;;;;;;5018541;28;20053;-65
2022/08/31 10:09:50;;;;;;;4.82;0.80;;;22.70;75.00;;;;;;5018158;28;20053;-65
2022/08/31 10:12:33;;;;;;;0.93;0.68;;;22.80;74.60;;;;;;5021011;28;20045;-65
2022/08/31 10:15:04;;;;;;;0.63;0.60;;;22.90;73.80;;;;;;5019162;28;20119;-65
2022/08/31 10:17:55;;;;;;;1.50;0.63;;;23.00;73.40;;;;;;5019329;28;20111;-65
2022/08/31 10:20:30;;;;;;;2.25;0.60;;;23.30;73.00;;;;;;5014263;28;20045;-65
2022/08/31 10:23:17;;;;;;;4.30;0.60;;;23.40;71.80;;;;;;5020988;28;20068;-65
2022/08/31 10:26:06;;;;;;;4.03;0.80;;;23.40;70.20;;;;;;5019342;28;20053;-65
2022/08/31 10:28:43;;;;;;;1.23;0.60;;;23.30;70.10;;;;;;5019011;28;20052;-65
2022/08/31 10:31:22;;;;;;;4.82;0.52;;;23.30;70.50;;;;;;5022032;28;20508;-64
2022/08/31 10:36:59;;;;;;;1.58;0.70;;;23.50;70.40;;;;;;5024349;28;20488;-65
2022/08/31 10:39:43;;;;;;;5.55;0.70;;;23.70;69.90;;;;;;5022934;28;20053;-64
2022/08/31 10:42:19;;;;;;;8.52;0.68;;;23.90;70.30;;;;;;5021869;28;20095;-65
2022/08/31 10:44:56;;;;;;;2.13;0.82;;;23.90;68.30;;;;;;5020423;28;20042;-65
2022/08/31 10:47:24;;;;;;;2.10;0.65;;;23.80;68.70;;;;;;4984573;28;20056;-65
2022/08/31 10:49:57;;;;;;;4.22;0.80;;;23.80;68.50;;;;;;5006098;28;20041;-65
2022/08/31 10:52:53;;;;;;;8.50;0.88;;;23.80;67.10;;;;;;5020186;28;20060;-65
2022/08/31 10:55:32;;;;;;;6.25;0.70;;;23.80;67.10;;;;;;5014523;28;20124;-65
2022/08/31 10:58:16;;;;;;;2.95;0.63;;;23.80;66.90;;;;;;5023379;28;20450;-65
2022/08/31 11:00:53;;;;;;;1.23;0.70;;;24.00;67.50;;;;;;5021031;28;20507;-65
2022/08/31 11:03:47;;;;;;;1.95;0.60;;;24.10;65.80;;;;;;5021932;28;20061;-65
2022/08/31 11:06:45;;;;;;;2.00;0.63;;;24.10;65.30;;;;;;5021406;28;20041;-65
2022/08/31 11:09:38;;;;;;;1.88;0.50;;;24.00;65.10;;;;;;5020719;28;20633;-65
2022/08/31 11:12:17;;;;;;;;;;;24.10;65.10;;;;;;5018326;28;20081;-65
2022/08/31 11:15:23;;;;;;;1.17;0.50;;;24.20;64.90;;;;;;5037258;28;19925;-65
2022/08/31 11:18:12;;;;;;;2.97;0.70;;;24.30;64.60;;;;;;5012322;28;20421;-65
2022/08/31 11:21:00;;;;;;;1.88;0.70;;;24.10;63.20;;;;;;5013297;28;20037;-64
2022/08/31 11:23:31;;;;;;;1.27;0.60;;;23.90;63.20;;;;;;5014531;28;20049;-64
2022/08/31 11:26:25;;;;;;;3.40;0.60;;;23.70;63.60;;;;;;4998949;28;20087;-64
2022/08/31 11:28:57;;;;;;;6.15;0.70;;;23.80;63.70;;;;;;5012487;28;20929;-64
2022/08/31 11:31:29;;;;;;;3.70;1.08;;;23.80;64.30;;;;;;5010345;28;21233;-64
2022/08/31 11:34:04;;;;;;;0.87;0.60;;;24.00;63.70;;;;;;4980253;28;20107;-64
2022/08/31 11:37:02;;;;;;;1.67;0.70;;;24.30;63.60;;;;;;5029571;28;21035;-64
2022/08/31 11:39:39;;;;;;;0.70;0.60;;;24.40;62.60;;;;;;5006483;28;20061;-65
2022/08/31 11:42:32;;;;;;;1.02;0.68;;;24.30;62.00;;;;;;5010917;28;20053;-65
2022/08/31 11:45:07;;;;;;;1.88;0.80;;;24.30;62.30;;;;;;4998471;28;20069;-65
2022/08/31 11:47:40;;;;;;;1.30;0.60;;;24.50;61.90;;;;;;5031272;28;20045;-64
2022/08/31 11:50:31;;;;;;;7.05;0.50;;;24.70;61.60;;;;;;5014064;28;20110;-65
2022/08/31 11:53:15;;;;;;;3.00;0.57;;;24.80;60.20;;;;;;5006201;28;20191;-65
2022/08/31 11:55:48;;;;;;;0.70;0.60;;;24.90;60.20;;;;;;4997902;28;20050;-64
2022/08/31 11:58:25;;;;;;;0.95;0.55;;;25.00;59.20;;;;;;5014498;28;20061;-63
2022/08/31 12:00:54;;;;;;;0.57;0.35;;;25.00;58.90;;;;;;5013607;28;20046;-64
2022/08/31 12:03:35;;;;;;;2.58;0.57;;;25.20;59.00;;;;;;5012270;28;20049;-63
2022/08/31 12:06:02;;;;;;;1.27;0.60;;;25.40;58.20;;;;;;5014600;28;20089;-64
2022/08/31 12:08:31;;;;;;;2.53;0.70;;;25.40;58.20;;;;;;5017277;28;20064;-64
2022/08/31 12:11:13;;;;;;;0.95;0.50;;;25.40;57.30;;;;;;5012355;28;20160;-64
2022/08/31 12:14:00;;;;;;;0.57;0.40;;;25.50;57.20;;;;;;5013602;28;20086;-64
2022/08/31 12:16:46;;;;;;;1.00;0.60;;;25.60;58.20;;;;;;4998471;28;20658;-64
2022/08/31 12:25:41;;;;;;;3.13;0.70;;;26.20;57.10;;;;;;5011228;28;20061;-63
2022/08/31 12:28:36;;;;;;;2.38;0.63;;;26.30;56.70;;;;;;5012814;28;20487;-64
2022/08/31 12:31:08;;;;;;;1.92;0.60;;;26.40;56.60;;;;;;4991783;28;20141;-64
2022/08/31 12:33:39;;;;;;;3.20;0.80;;;26.50;55.50;;;;;;5012835;28;20049;-64
2022/08/31 12:36:18;;;;;;;2.60;0.63;;;26.50;54.00;;;;;;5021558;28;20079;-64
2022/08/31 12:38:44;;;;;;;3.90;0.70;;;26.50;53.80;;;;;;5019988;28;20050;-64
2022/08/31 12:41:12;;;;;;;3.35;0.60;;;26.40;53.10;;;;;;5018684;28;20081;-64
2022/08/31 12:43:47;;;;;;;0.90;0.70;;;26.40;53.30;;;;;;5020245;28;20060;-64
2022/08/31 12:46:39;;;;;;;2.78;0.50;;;26.40;53.20;;;;;;5018226;28;20049;-64
2022/08/31 12:49:23;;;;;;;3.33;0.57;;;26.50;53.00;;;;;;5018604;28;20052;-64
2022/08/31 12:52:00;;;;;;;1.15;0.65;;;26.60;53.00;;;;;;5019756;28;20056;-64
2022/08/31 12:54:44;;;;;;;1.08;0.50;;;26.70;52.00;;;;;;5020501;28;20091;-63
2022/08/31 12:57:34;;;;;;;1.50;0.70;;;26.70;53.00;;;;;;5018345;28;20125;-64
2022/08/31 13:00:16;;;;;;;5.38;0.60;;;26.80;52.50;;;;;;5002138;28;20151;-64
2022/08/31 13:02:46;;;;;;;1.75;0.60;;;26.90;52.90;;;;;;4987960;28;20057;-64
2022/08/31 13:05:27;;;;;;;2.47;0.50;;;27.10;53.30;;;;;;5016652;28;21004;-64
2022/08/31 13:07:53;;;;;;;0.75;0.60;;;27.30;52.60;;;;;;5019502;28;20045;-64
2022/08/31 13:10:36;;;;;;;3.05;0.80;;;27.50;53.00;;;;;;5018471;28;20054;-64
2022/08/31 13:13:18;;;;;;;2.83;0.73;;;27.50;53.40;;;;;;5019593;28;20068;-64
2022/08/31 13:15:44;;;;;;;2.47;0.60;;;27.40;54.20;;;;;;5033126;28;20092;-64
2022/08/31 13:18:15;;;;;;;2.33;0.90;;;27.40;54.20;;;;;;5020933;28;20156;-64
2022/08/31 13:20:44;;;;;;;2.03;0.70;;;27.30;54.10;;;;;;5017622;28;20042;-64
2022/08/31 13:23:14;;;;;;;3.85;0.73;;;27.40;54.40;;;;;;5019484;28;20049;-64
2022/08/31 13:25:40;;;;;;;3.13;0.70;;;27.40;55.20;;;;;;5018434;28;20125;-64
2022/08/31 13:28:19;;;;;;;5.78;0.60;;;27.30;55.10;;;;;;5017919;28;20045;-64
2022/08/31 13:31:02;;;;;;;3.00;0.90;;;27.20;55.30;;;;;;5020523;28;20064;-64